Time;durP1;ratioP1;P1;durP2;ratioP2;P2;SDS_P1;SDS_P2;PMS_P1;PMS_P2;Temp;Humidity;BMP_temperature;BMP_pressure;BME280_temperature;BME280_humidity;BME280_pressure;Samples;Min_cycle;Max_cycle;Signal;HPM_P1;HPM_P2
2021/03/29 00:00:07;;;;;;;24.00;17.35;;;;;;;7.05;84.65;100485.50;1692412;84;21215;-62
2021/03/29 00:02:35;;;;;;;25.77;19.42;;;;;;;6.97;85.14;100489.22;1674830;85;21172;-62
2021/03/29 00:05:06;;;;;;;24.63;18.37;;;;;;;6.93;85.53;100483.16;1700304;84;21180;-60
2021/03/29 00:07:34;;;;;;;24.82;17.05;;;;;;;6.89;86.00;100496.12;1700492;83;21207;-62
2021/03/29 00:10:08;;;;;;;22.00;16.12;;;;;;;6.86;86.09;100495.18;1700519;84;21215;-61
2021/03/29 00:12:36;;;;;;;22.93;15.88;;;;;;;6.83;86.54;100488.92;1693256;84;21189;-60
2021/03/29 00:15:06;;;;;;;26.12;16.70;;;;;;;6.77;86.80;100489.73;1695194;84;21251;-63
2021/03/29 00:17:35;;;;;;;26.23;17.90;;;;;;;6.76;87.17;100502.78;1692999;84;22101;-62
2021/03/29 00:20:15;;;;;;;25.68;17.27;;;;;;;6.74;87.46;100498.17;1673566;84;21198;-61
2021/03/29 00:22:42;;;;;;;24.72;17.05;;;;;;;6.74;87.67;100501.36;1692038;84;21336;-61
2021/03/29 00:25:14;;;;;;;24.30;17.05;;;;;;;6.75;87.73;100512.38;1673002;84;21180;-59
2021/03/29 00:27:43;;;;;;;22.73;17.70;;;;;;;6.72;87.91;100508.23;1692545;84;21209;-61
2021/03/29 00:30:20;;;;;;;27.32;18.98;;;;;;;6.73;87.93;100519.75;1652952;85;21152;-62
2021/03/29 00:32:47;;;;;;;21.35;14.75;;;;;;;6.68;88.46;100516.88;1705694;84;21268;-61
2021/03/29 00:35:17;;;;;;;25.70;18.82;;;;;;;6.69;88.57;100517.19;1705352;84;21170;-61
2021/03/29 00:37:49;;;;;;;23.85;17.42;;;;;;;6.69;88.47;100520.69;1705374;84;21177;-62
2021/03/29 00:40:19;;;;;;;23.80;17.02;;;;;;;6.71;88.37;100524.50;1705750;84;21639;-62
2021/03/29 00:42:52;;;;;;;23.45;16.67;;;;;;;6.71;88.42;100521.83;1705715;83;21595;-60
2021/03/29 00:45:21;;;;;;;21.60;16.17;;;;;;;6.69;88.36;100523.88;1699084;84;21187;-63
2021/03/29 00:47:48;;;;;;;24.52;17.50;;;;;;;6.69;88.48;100519.35;1700699;84;21352;-61
2021/03/29 00:50:25;;;;;;;25.55;18.20;;;;;;;6.65;88.75;100523.47;1700837;84;21224;-61
2021/03/29 00:52:53;;;;;;;20.88;15.80;;;;;;;6.65;88.71;100536.83;1694092;84;21702;-63
2021/03/29 00:55:21;;;;;;;18.77;13.83;;;;;;;6.62;88.72;100527.06;1695487;84;21116;-63
2021/03/29 00:57:48;;;;;;;18.00;13.88;;;;;;;6.63;88.74;100531.36;1693356;84;21388;-62
2021/03/29 01:00:33;;;;;;;22.58;16.60;;;;;;;6.64;88.81;100537.84;1673670;84;21172;-63
2021/03/29 01:03:01;;;;;;;21.07;15.50;;;;;;;6.65;88.68;100522.13;1652140;85;21173;-63
2021/03/29 01:05:29;;;;;;;20.88;15.72;;;;;;;6.65;88.68;100527.47;1705992;84;21042;-62
2021/03/29 01:07:57;;;;;;;25.27;15.68;;;;;;;6.62;88.61;100533.75;1704325;83;21565;-61
2021/03/29 01:10:25;;;;;;;24.72;16.73;;;;;;;6.63;88.53;100534.86;1736355;82;21399;-61
2021/03/29 01:12:52;;;;;;;23.00;16.05;;;;;;;6.65;88.47;100532.81;1666931;84;21173;-59
2021/03/29 01:15:20;;;;;;;25.30;16.07;;;;;;;6.66;88.51;100540.33;1710283;83;21166;-62
2021/03/29 01:17:48;;;;;;;22.87;17.65;;;;;;;6.66;88.49;100537.15;1685462;83;21149;-62
2021/03/29 01:20:34;;;;;;;17.75;14.65;;;;;;;6.65;88.34;100536.00;1685675;83;22316;-61
2021/03/29 01:23:01;;;;;;;19.05;14.13;;;;;;;6.66;88.31;100536.32;1711727;83;21221;-63
2021/03/29 01:25:43;;;;;;;20.88;15.78;;;;;;;6.64;88.23;100533.84;1711480;83;21256;-62
2021/03/29 01:28:21;;;;;;;24.25;18.48;;;;;;;6.62;88.37;100541.22;1711520;83;21210;-62
2021/03/29 01:30:51;;;;;;;25.12;15.70;;;;;;;6.62;88.41;100546.56;1686064;83;21160;-62
2021/03/29 01:33:18;;;;;;;23.35;16.90;;;;;;;6.62;88.48;100540.43;1711639;83;21590;-62
2021/03/29 01:35:53;;;;;;;20.08;16.10;;;;;;;6.62;88.53;100532.41;1710763;82;21400;-62
2021/03/29 01:38:23;;;;;;;19.77;14.13;;;;;;;6.60;88.52;100541.13;1650832;85;21148;-63
2021/03/29 01:40:51;;;;;;;21.15;16.95;;;;;;;6.57;88.60;100541.84;1685095;83;21174;-58
2021/03/29 01:43:19;;;;;;;22.67;16.85;;;;;;;6.57;88.61;100543.17;1708031;82;21132;-61
2021/03/29 01:45:47;;;;;;;21.50;16.02;;;;;;;6.56;88.79;100546.89;1683784;84;21210;-60
2021/03/29 01:48:14;;;;;;;23.98;17.32;;;;;;;6.60;88.79;100546.48;1708460;84;22208;-61
2021/03/29 01:50:45;;;;;;;24.12;16.87;;;;;;;6.60;88.76;100554.49;1708495;84;21032;-59
2021/03/29 01:53:13;;;;;;;22.90;15.15;;;;;;;6.58;88.84;100558.70;1708410;84;21186;-60
2021/03/29 01:55:42;;;;;;;22.73;15.18;;;;;;;6.58;88.77;100549.34;1679960;84;21666;-64
2021/03/29 01:58:10;;;;;;;27.02;15.55;;;;;;;6.61;88.81;100554.81;1707758;84;21130;-64
2021/03/29 02:00:56;;;;;;;26.00;18.52;;;;;;;6.64;88.87;100562.41;1708185;84;21335;-64
2021/03/29 02:03:26;;;;;;;25.05;15.30;;;;;;;6.64;88.86;100559.23;1673197;85;21251;-63
2021/03/29 02:05:54;;;;;;;22.55;15.43;;;;;;;6.61;88.91;100573.52;1720362;82;21201;-64
2021/03/29 02:08:22;;;;;;;22.50;15.98;;;;;;;6.58;89.02;100564.05;1733321;82;21933;-63
2021/03/29 02:10:52;;;;;;;21.68;15.28;;;;;;;6.57;89.04;100575.24;1717499;82;21159;-63
2021/03/29 02:13:25;;;;;;;20.65;14.38;;;;;;;6.58;89.10;100572.06;1708507;84;21612;-64
2021/03/29 02:16:07;;;;;;;15.53;13.25;;;;;;;6.60;89.16;100570.02;1707171;84;21220;-62
2021/03/29 02:18:41;;;;;;;19.57;14.45;;;;;;;6.60;89.15;100581.22;1707332;83;21046;-62
2021/03/29 02:21:20;;;;;;;19.07;14.60;;;;;;;6.59;89.10;100581.73;1708680;84;21111;-63
2021/03/29 02:23:54;;;;;;;20.80;14.60;;;;;;;6.54;89.13;100571.65;1707116;84;21154;-64
2021/03/29 02:26:33;;;;;;;23.45;15.68;;;;;;;6.53;89.18;100570.50;1708656;84;21577;-65
2021/03/29 02:29:00;;;;;;;16.62;13.83;;;;;;;6.52;89.29;100584.38;1707404;83;21169;-63
2021/03/29 02:31:30;;;;;;;19.80;14.58;;;;;;;6.53;89.32;100582.02;1685815;83;21143;-63
2021/03/29 02:33:58;;;;;;;15.63;11.93;;;;;;;6.53;89.34;100576.67;1736415;82;21152;-63
2021/03/29 02:36:27;;;;;;;20.95;14.58;;;;;;;6.50;89.29;100585.11;1736430;82;21259;-64
2021/03/29 02:38:54;;;;;;;20.90;13.70;;;;;;;6.50;89.25;100582.44;1736305;82;21202;-65
2021/03/29 02:41:25;;;;;;;18.15;13.53;;;;;;;6.47;89.52;100584.19;1736183;82;21025;-64
2021/03/29 02:43:53;;;;;;;18.85;12.75;;;;;;;6.47;89.50;100589.53;1736271;82;21057;-64
2021/03/29 02:46:27;;;;;;;19.57;14.03;;;;;;;6.48;89.56;100598.34;1735990;82;21598;-64
2021/03/29 02:48:57;;;;;;;16.97;12.45;;;;;;;6.45;89.48;100589.41;1736446;82;21137;-63
2021/03/29 02:51:25;;;;;;;21.50;13.20;;;;;;;6.44;89.56;100587.75;1708420;84;21345;-64
2021/03/29 02:54:05;;;;;;;21.27;14.43;;;;;;;6.40;89.92;100596.69;1711091;83;21168;-62
2021/03/29 02:56:40;;;;;;;18.37;13.90;;;;;;;6.37;89.97;100600.28;1736376;82;21187;-64
2021/03/29 02:59:10;;;;;;;22.30;15.70;;;;;;;6.37;90.24;100606.96;1737745;82;21507;-62
2021/03/29 03:01:39;;;;;;;24.00;14.35;;;;;;;6.32;90.47;100604.89;1739329;82;21183;-63
2021/03/29 03:04:10;;;;;;;17.45;12.95;;;;;;;6.31;90.58;100611.25;1711607;84;21720;-64
2021/03/29 03:06:38;;;;;;;26.27;15.85;;;;;;;6.33;90.52;100585.67;1710893;83;21061;-63
2021/03/29 03:09:08;;;;;;;24.72;16.00;;;;;;;6.31;90.74;100600.56;1685036;83;21135;-63
2021/03/29 03:11:37;;;;;;;20.60;14.80;;;;;;;6.32;90.68;100606.23;1736372;82;21125;-61
2021/03/29 03:14:08;;;;;;;21.90;15.83;;;;;;;6.35;90.67;100602.31;1736178;82;21621;-64
2021/03/29 03:16:38;;;;;;;22.05;13.93;;;;;;;6.36;90.53;100607.98;1736182;82;21372;-64
2021/03/29 03:19:07;;;;;;;21.42;14.93;;;;;;;6.34;90.45;100615.35;1708538;84;21137;-64
2021/03/29 03:21:37;;;;;;;23.15;16.45;;;;;;;6.35;90.55;100619.17;1710993;83;21156;-65
2021/03/29 03:24:07;;;;;;;23.00;15.60;;;;;;;6.37;90.67;100640.36;1711062;83;21143;-67
2021/03/29 03:26:35;;;;;;;24.87;16.57;;;;;;;6.32;90.68;100634.28;1736393;82;21207;-63
2021/03/29 03:29:04;;;;;;;30.80;19.20;;;;;;;6.28;90.73;100642.38;1736511;82;21176;-65
2021/03/29 03:31:33;;;;;;;27.37;16.23;;;;;;;6.25;90.99;100637.92;1736510;82;21653;-64
2021/03/29 03:34:01;;;;;;;23.15;14.50;;;;;;;6.26;90.95;100632.90;1736485;82;20994;-66
2021/03/29 03:36:29;;;;;;;24.23;17.17;;;;;;;6.29;91.18;100642.67;1736393;82;21026;-64
2021/03/29 03:38:58;;;;;;;28.20;17.57;;;;;;;6.31;91.02;100643.30;1698772;84;21577;-69
2021/03/29 03:41:31;;;;;;;21.73;14.50;;;;;;;6.32;90.90;100643.63;1679602;84;21484;-65
2021/03/29 03:44:00;;;;;;;23.47;15.55;;;;;;;6.32;90.90;100643.63;1735196;82;21204;-65
2021/03/29 03:46:38;;;;;;;26.80;16.12;;;;;;;6.22;91.22;100654.36;1736834;82;21144;-65
2021/03/29 03:49:16;;;;;;;21.40;16.20;;;;;;;6.20;91.21;100654.55;1736378;81;21173;-64
2021/03/29 03:51:44;;;;;;;22.52;15.32;;;;;;;6.20;91.69;100650.54;1729042;82;21592;-64
2021/03/29 03:54:11;;;;;;;19.05;13.65;;;;;;;6.22;91.59;100655.69;1729321;82;21263;-65
2021/03/29 03:56:40;;;;;;;19.27;12.37;;;;;;;6.19;91.68;100643.54;1736287;82;21255;-64
2021/03/29 03:59:09;;;;;;;17.65;12.78;;;;;;;6.18;91.86;100649.10;1736266;82;21125;-64
2021/03/29 04:02:00;;;;;;;27.67;16.57;;;;;;;6.17;91.89;100654.95;1736428;82;21137;-68
2021/03/29 04:04:29;;;;;;;20.17;14.50;;;;;;;6.12;92.35;100652.05;1736363;82;21586;-64
2021/03/29 04:06:59;;;;;;;22.02;15.65;;;;;;;6.09;92.53;100654.58;1708526;82;21577;-64
2021/03/29 04:09:44;;;;;;;19.87;14.98;;;;;;;6.08;92.57;100662.81;1700482;83;21233;-70
2021/03/29 04:12:11;;;;;;;23.18;12.98;;;;;;;6.09;92.49;100661.80;1700994;84;21002;-65
2021/03/29 04:14:39;;;;;;;23.62;16.40;;;;;;;6.07;92.71;100661.98;1699817;84;21224;-64
2021/03/29 04:17:06;;;;;;;19.60;12.88;;;;;;;6.10;92.64;100668.26;1700968;84;21160;-65
2021/03/29 04:19:36;;;;;;;17.05;12.35;;;;;;;6.09;92.72;100666.60;1700823;84;21146;-67
2021/03/29 04:22:05;;;;;;;20.72;14.53;;;;;;;6.10;92.59;100670.93;1701903;84;21155;-64
2021/03/29 04:24:33;;;;;;;21.68;14.05;;;;;;;6.11;92.48;100670.42;1701090;84;21277;-63
2021/03/29 04:27:00;;;;;;;19.87;15.10;;;;;;;6.12;92.44;100668.07;1692997;84;21090;-64
2021/03/29 04:29:28;;;;;;;22.15;15.23;;;;;;;6.08;92.55;100685.52;1695310;84;21157;-63
2021/03/29 04:31:56;;;;;;;21.65;13.32;;;;;;;6.04;92.69;100672.24;1693003;84;21177;-63
2021/03/29 04:34:24;;;;;;;23.12;15.78;;;;;;;6.07;92.63;100679.34;1695008;84;21161;-66
2021/03/29 04:36:52;;;;;;;19.82;14.45;;;;;;;6.10;92.54;100682.95;1692934;83;20991;-66
2021/03/29 04:39:20;;;;;;;20.80;14.33;;;;;;;6.10;92.54;100682.95;1695165;84;21125;-62
2021/03/29 04:41:47;;;;;;;22.45;14.80;;;;;;;6.05;92.66;100684.55;1693074;84;21683;-62
2021/03/29 04:44:15;;;;;;;20.43;14.05;;;;;;;6.05;92.66;100684.55;1694996;84;21453;-65
2021/03/29 04:46:42;;;;;;;20.88;13.80;;;;;;;6.11;92.52;100696.62;1692932;84;21189;-64
2021/03/29 04:49:10;;;;;;;22.32;15.05;;;;;;;6.19;92.39;100692.16;1706117;84;21112;-65
2021/03/29 04:51:38;;;;;;;25.17;15.63;;;;;;;6.24;92.15;100694.53;1700957;84;21231;-63
2021/03/29 04:54:06;;;;;;;25.27;16.00;;;;;;;6.29;91.81;100692.09;1700967;84;21176;-62
2021/03/29 04:56:33;;;;;;;19.87;15.13;;;;;;;6.32;91.58;100700.23;1701096;84;22350;-65
2021/03/29 04:59:02;;;;;;;24.47;16.35;;;;;;;6.33;91.31;100705.91;1692967;84;21177;-63
2021/03/29 05:01:31;;;;;;;25.60;17.55;;;;;;;6.32;91.03;100703.73;1695809;84;21524;-64
2021/03/29 05:03:59;;;;;;;33.67;17.05;;;;;;;6.31;90.77;100701.25;1693774;84;21639;-64
2021/03/29 05:06:30;;;;;;;20.25;12.63;;;;;;;6.30;91.07;100710.28;1720049;83;21181;-66
2021/03/29 05:09:00;;;;;;;23.75;16.25;;;;;;;6.30;91.07;100710.28;1719008;82;22067;-63
2021/03/29 05:11:35;;;;;;;21.55;15.53;;;;;;;6.30;90.78;100708.44;1708606;84;21146;-64
2021/03/29 05:13:59;;;;;;;23.70;15.53;;;;;;;6.30;90.69;100705.77;1707962;84;21057;-64
2021/03/29 05:16:26;;;;;;;24.82;16.25;;;;;;;6.32;90.74;100713.59;1711134;83;21218;-64
2021/03/29 05:18:56;;;;;;;27.07;18.65;;;;;;;6.36;90.62;100705.50;1736446;82;21218;-63
2021/03/29 05:21:25;;;;;;;29.60;18.15;;;;;;;6.43;90.44;100711.17;1736483;82;21610;-69
2021/03/29 05:23:53;;;;;;;26.93;18.37;;;;;;;6.44;90.19;100716.02;1736469;82;21044;-62
2021/03/29 05:26:21;;;;;;;29.00;21.15;;;;;;;6.35;90.06;100717.20;1736396;82;21014;-65
2021/03/29 05:28:51;;;;;;;28.52;17.30;;;;;;;6.33;90.08;100713.38;1708627;84;21666;-63
2021/03/29 05:31:19;;;;;;;28.83;20.25;;;;;;;6.42;90.18;100721.58;1711192;83;21130;-64
2021/03/29 05:33:50;;;;;;;26.48;18.60;;;;;;;6.42;90.18;100721.58;1736557;82;21646;-63
2021/03/29 05:36:17;;;;;;;27.77;19.12;;;;;;;6.49;90.03;100729.09;1735869;82;21645;-63
2021/03/29 05:38:45;;;;;;;29.00;20.43;;;;;;;6.50;89.62;100733.43;1736559;82;21165;-63
2021/03/29 05:41:14;;;;;;;30.85;21.20;;;;;;;6.46;89.43;100729.51;1736603;81;21171;-62
2021/03/29 05:43:44;;;;;;;28.62;18.25;;;;;;;6.44;89.49;100742.23;1738170;82;21164;-64
2021/03/29 05:46:12;;;;;;;24.27;15.55;;;;;;;6.36;89.85;100744.23;1736559;82;21850;-64
2021/03/29 05:48:39;;;;;;;32.85;19.95;;;;;;;6.34;89.86;100740.92;1736613;82;21148;-64
2021/03/29 05:51:07;;;;;;;40.15;21.90;;;;;;;6.31;89.89;100743.50;1736536;82;21160;-64
2021/03/29 05:53:36;;;;;;;33.13;18.95;;;;;;;6.33;89.98;100746.78;1733874;82;21228;-65
2021/03/29 05:56:06;;;;;;;32.00;20.57;;;;;;;6.36;90.06;100752.25;1730038;82;21230;-65
2021/03/29 05:58:38;;;;;;;26.95;20.23;;;;;;;6.36;90.02;100758.94;1708322;84;21628;-65
2021/03/29 06:01:03;;;;;;;28.85;19.98;;;;;;;6.40;89.96;100754.34;1708227;84;21222;-64
2021/03/29 06:03:39;;;;;;;28.73;19.02;;;;;;;6.45;89.82;100759.09;1708592;84;21178;-63
2021/03/29 06:06:16;;;;;;;30.90;22.07;;;;;;;6.49;89.59;100756.33;1708968;82;21226;-63
2021/03/29 06:08:46;;;;;;;33.50;21.15;;;;;;;6.49;89.28;100768.36;1714724;82;21196;-64
2021/03/29 06:11:33;;;;;;;33.92;21.95;;;;;;;6.42;89.23;100780.36;1733915;82;21184;-64
2021/03/29 06:14:16;;;;;;;31.33;22.07;;;;;;;6.47;89.26;100780.60;1730247;82;21216;-65
2021/03/29 06:17:08;;;;;;;28.07;17.27;;;;;;;6.52;89.10;100780.81;1690142;84;21214;-64
2021/03/29 06:19:48;;;;;;;21.63;13.67;;;;;;;6.60;89.01;100781.18;1736663;82;21140;-65
2021/03/29 06:22:31;;;;;;;35.43;23.27;;;;;;;6.57;88.54;100789.57;1736302;82;21521;-63
2021/03/29 06:25:15;;;;;;;30.43;22.10;;;;;;;6.56;88.49;100784.77;1737145;82;21756;-67
2021/03/29 06:27:57;;;;;;;33.65;22.70;;;;;;;6.62;88.49;100787.67;1735806;82;21213;-64
2021/03/29 06:30:36;;;;;;;33.60;21.82;;;;;;;6.72;88.42;100789.45;1736313;82;21167;-68
2021/03/29 06:33:15;;;;;;;29.85;22.00;;;;;;;6.84;88.20;100791.89;1736391;82;21177;-63
2021/03/29 06:35:52;;;;;;;33.13;22.00;;;;;;;6.88;87.30;100795.31;1736312;82;21637;-64
2021/03/29 06:38:32;;;;;;;32.25;21.90;;;;;;;6.92;87.08;100799.23;1736496;82;22288;-64
2021/03/29 06:41:01;;;;;;;35.33;23.27;;;;;;;6.92;86.80;100799.73;1736361;81;21188;-64
2021/03/29 06:43:36;;;;;;;32.10;21.48;;;;;;;6.94;86.71;100805.22;1707476;84;23669;-64
2021/03/29 06:46:25;;;;;;;34.88;24.72;;;;;;;7.01;86.57;100804.72;1685678;83;21229;-63
2021/03/29 06:48:55;;;;;;;27.15;19.92;;;;;;;7.07;86.32;100808.45;1754564;81;21181;-62
2021/03/29 06:51:25;;;;;;;36.60;22.10;;;;;;;7.13;86.13;100812.19;1754487;81;21360;-64
2021/03/29 06:54:01;;;;;;;34.48;24.18;;;;;;;7.20;85.89;100817.86;1754371;81;21180;-63
2021/03/29 06:56:36;;;;;;;23.90;17.98;;;;;;;7.23;85.46;100815.31;1736636;81;21583;-64
2021/03/29 06:59:13;;;;;;;38.63;24.37;;;;;;;7.22;85.04;100825.70;1754555;81;21578;-65
2021/03/29 07:01:52;;;;;;;40.00;23.52;;;;;;;7.20;84.96;100823.20;1754574;81;21141;-65
2021/03/29 07:04:26;;;;;;;40.48;25.50;;;;;;;7.14;85.03;100824.55;1754554;81;21370;-65
2021/03/29 07:06:54;;;;;;;34.30;23.38;;;;;;;7.15;85.15;100826.17;1754686;81;21164;-63
2021/03/29 07:09:22;;;;;;;38.78;23.75;;;;;;;7.18;85.16;100830.63;1754491;81;21061;-64
2021/03/29 07:11:52;;;;;;;31.55;22.10;;;;;;;7.23;85.12;100833.53;1752824;81;21153;-67
2021/03/29 07:14:20;;;;;;;40.88;25.82;;;;;;;7.32;85.02;100828.31;1752954;81;21472;-64
2021/03/29 07:16:50;;;;;;;38.63;24.37;;;;;;;7.37;84.45;100833.89;1752850;81;20927;-62
2021/03/29 07:19:18;;;;;;;37.13;25.90;;;;;;;7.42;84.37;100837.30;1752815;81;21168;-64
2021/03/29 07:21:47;;;;;;;29.77;21.95;;;;;;;7.43;83.98;100834.95;1752864;81;21164;-62
2021/03/29 07:24:15;;;;;;;42.05;26.35;;;;;;;7.45;83.83;100832.36;1731620;81;21216;-63
2021/03/29 07:26:57;;;;;;;34.83;25.75;;;;;;;7.43;83.50;100840.30;1752917;81;21128;-63
2021/03/29 07:29:32;;;;;;;39.23;26.25;;;;;;;7.47;83.50;100840.20;1753110;81;21368;-64
2021/03/29 07:32:06;;;;;;;36.90;25.92;;;;;;;7.51;83.01;100848.14;1752782;81;21133;-63
2021/03/29 07:34:48;;;;;;;34.67;24.40;;;;;;;7.58;82.76;100847.63;1726309;83;21101;-65
2021/03/29 07:37:55;;;;;;;30.95;23.65;;;;;;;7.69;82.45;100841.69;1739361;81;21177;-63
2021/03/29 07:40:36;;;;;;;32.28;21.48;;;;;;;7.80;82.11;100842.95;1752946;81;21216;-64
2021/03/29 07:43:14;;;;;;;33.78;21.95;;;;;;;7.92;81.70;100837.29;1753102;81;21439;-63
2021/03/29 07:45:48;;;;;;;36.90;24.72;;;;;;;8.00;81.19;100839.80;1753516;81;21152;-64
2021/03/29 07:48:34;;;;;;;36.03;24.98;;;;;;;8.12;81.10;100848.03;1753706;81;21140;-62
2021/03/29 07:51:07;;;;;;;40.35;28.50;;;;;;;8.17;80.09;100851.75;1753274;81;21622;-63
2021/03/29 07:53:51;;;;;;;38.27;25.50;;;;;;;8.25;79.76;100858.75;1753283;81;21172;-63
2021/03/29 07:56:41;;;;;;;37.58;25.02;;;;;;;8.36;79.28;100862.70;1734943;81;21424;-61
2021/03/29 07:59:10;;;;;;;31.95;23.52;;;;;;;8.45;78.84;100867.65;1752917;81;21133;-63
2021/03/29 08:02:17;;;;;;;35.10;23.87;;;;;;;8.51;78.39;100873.53;1753022;81;21574;-64
2021/03/29 08:05:06;;;;;;;34.33;23.95;;;;;;;8.53;77.80;100874.16;1752852;81;21137;-64
2021/03/29 08:07:44;;;;;;;29.18;19.80;;;;;;;8.58;77.53;100868.17;1752553;81;21626;-64
2021/03/29 08:10:15;;;;;;;36.10;26.10;;;;;;;8.65;76.98;100872.48;1753438;81;21144;-62
2021/03/29 08:13:00;;;;;;;33.28;24.25;;;;;;;8.70;77.00;100883.41;1754393;81;21157;-65
2021/03/29 08:16:04;;;;;;;37.08;25.92;;;;;;;8.82;76.69;100874.74;1754768;81;21129;-65
2021/03/29 08:19:14;;;;;;;38.83;26.55;;;;;;;8.92;75.90;100877.83;1754530;81;21037;-64
2021/03/29 08:22:09;;;;;;;34.90;22.40;;;;;;;9.00;75.31;100882.95;1754653;81;21732;-64
2021/03/29 08:24:47;;;;;;;32.70;23.20;;;;;;;9.02;74.86;100876.33;1754880;81;21190;-64
2021/03/29 08:27:22;;;;;;;40.25;23.73;;;;;;;9.07;74.96;100885.08;1755015;81;21207;-65
2021/03/29 08:29:52;;;;;;;;;;;;;;;9.12;74.76;100885.28;1757784;81;21625;-63
2021/03/29 08:32:31;;;;;;;35.80;24.67;;;;;;;9.18;74.35;100892.50;1754612;81;20231;-63
2021/03/29 08:35:08;;;;;;;31.90;22.70;;;;;;;9.10;73.75;100890.05;1750925;81;21153;-63
2021/03/29 08:37:47;;;;;;;37.65;26.27;;;;;;;9.10;73.96;100892.22;1754460;81;22186;-64
2021/03/29 08:40:24;;;;;;;34.85;26.62;;;;;;;9.17;73.89;100894.87;1753977;81;21172;-63
2021/03/29 08:42:57;;;;;;;37.13;27.75;;;;;;;9.14;73.56;100888.08;1754635;81;21621;-64
2021/03/29 08:45:26;;;;;;;36.33;25.60;;;;;;;9.17;73.61;100893.01;1754235;81;21192;-65
2021/03/29 08:47:56;;;;;;;37.33;25.82;;;;;;;9.26;73.43;100897.63;1753506;81;21188;-64
2021/03/29 08:50:31;;;;;;;33.10;23.67;;;;;;;9.30;73.12;100891.34;1754623;81;21192;-66
2021/03/29 08:53:07;;;;;;;45.28;29.40;;;;;;;9.32;72.78;100888.73;1754530;81;21658;-62
2021/03/29 08:55:39;;;;;;;29.92;20.05;;;;;;;9.36;72.42;100891.81;1754629;81;21049;-64
2021/03/29 08:58:08;;;;;;;34.50;22.93;;;;;;;9.42;72.27;100893.65;1754562;81;21135;-63
2021/03/29 09:00:44;;;;;;;42.48;28.92;;;;;;;9.46;72.31;100885.47;1754572;81;21156;-64
2021/03/29 09:03:21;;;;;;;41.13;27.52;;;;;;;9.57;72.31;100898.23;1754564;81;21366;-66
2021/03/29 09:05:49;;;;;;;39.98;27.93;;;;;;;9.66;71.82;100900.98;1754614;81;21129;-63
2021/03/29 09:08:18;;;;;;;35.17;25.00;;;;;;;9.73;71.62;100902.30;1755108;81;21029;-62
2021/03/29 09:10:48;;;;;;;38.08;25.32;;;;;;;9.80;71.33;100905.25;1754038;81;21188;-63
2021/03/29 09:13:16;;;;;;;35.80;25.75;;;;;;;9.84;71.11;100900.26;1753058;81;21208;-64
2021/03/29 09:15:48;;;;;;;43.15;26.45;;;;;;;9.92;70.94;100902.72;1714111;81;21389;-65
2021/03/29 09:18:23;;;;;;;36.38;25.20;;;;;;;10.00;70.81;100904.63;1752874;81;21101;-64
2021/03/29 09:20:52;;;;;;;34.40;25.02;;;;;;;10.05;70.29;100900.77;1752836;81;21585;-64
2021/03/29 09:23:28;;;;;;;39.73;28.38;;;;;;;10.12;70.23;100907.97;1746894;81;21162;-64
2021/03/29 09:25:53;;;;;;;36.80;28.05;;;;;;;10.13;69.96;100913.11;1728283;81;21172;-64
2021/03/29 09:28:40;;;;;;;36.35;26.20;;;;;;;10.20;70.02;100918.48;1753508;81;21450;-65
2021/03/29 09:31:14;;;;;;;44.95;30.12;;;;;;;10.28;69.67;100913.66;1750603;81;28756;-64
2021/03/29 09:33:42;;;;;;;34.58;26.62;;;;;;;10.28;69.19;100914.17;1746659;81;21113;-65
2021/03/29 09:36:15;;;;;;;39.60;28.52;;;;;;;10.21;69.06;100925.52;1768185;81;21649;-63
2021/03/29 09:38:49;;;;;;;37.93;28.07;;;;;;;10.12;69.21;100926.23;1768426;81;21116;-64
2021/03/29 09:41:24;;;;;;;38.35;25.70;;;;;;;10.07;69.57;100927.44;1768701;81;21384;-62
2021/03/29 09:43:54;;;;;;;39.67;28.27;;;;;;;10.10;69.61;100925.66;1768463;81;21120;-65
2021/03/29 09:46:32;;;;;;;44.75;29.32;;;;;;;10.11;69.40;100932.69;1768509;81;21154;-64
2021/03/29 09:49:14;;;;;;;32.15;25.45;;;;;;;10.15;69.42;100927.69;1766421;81;21143;-63
2021/03/29 09:51:45;;;;;;;39.73;29.37;;;;;;;10.25;69.42;100923.52;1756687;81;21183;-63
2021/03/29 09:54:31;;;;;;;36.88;28.80;;;;;;;10.45;68.97;100924.17;1747739;81;21529;-62
2021/03/29 09:57:21;;;;;;;47.48;30.82;;;;;;;10.59;67.87;100922.23;1768412;81;21184;-62
2021/03/29 09:59:50;;;;;;;44.83;31.10;;;;;;;10.67;67.39;100933.23;1768471;81;21143;-64
2021/03/29 10:02:26;;;;;;;49.38;31.23;;;;;;;10.65;67.28;100932.61;1768445;81;21061;-63
2021/03/29 10:05:10;;;;;;;39.98;26.75;;;;;;;10.74;67.35;100926.73;1768440;81;21172;-62
2021/03/29 10:07:51;;;;;;;36.28;28.73;;;;;;;10.89;66.81;100926.39;1768507;81;21385;-62
2021/03/29 10:10:31;;;;;;;41.90;30.50;;;;;;;10.98;66.50;100937.72;1754798;79;20953;-62
2021/03/29 10:13:12;;;;;;;40.70;29.67;;;;;;;11.04;66.18;100925.52;1744893;81;21538;-60
2021/03/29 10:15:41;;;;;;;42.25;30.65;;;;;;;11.16;65.58;100929.66;1750136;81;21648;-59
2021/03/29 10:18:12;;;;;;;38.02;28.77;;;;;;;11.26;65.08;100930.80;1750075;81;21129;-62
2021/03/29 10:20:44;;;;;;;42.15;27.73;;;;;;;11.38;65.05;100936.24;1750044;82;21390;-59
2021/03/29 10:23:29;;;;;;;30.45;24.87;;;;;;;11.48;64.85;100941.11;1739664;81;21205;-60
2021/03/29 10:26:31;;;;;;;34.90;26.23;;;;;;;11.61;64.61;100944.46;1754954;81;21129;-63
2021/03/29 10:29:01;;;;;;;34.03;24.87;;;;;;;11.68;64.27;100937.66;1753872;81;21030;-63
2021/03/29 10:31:37;;;;;;;38.55;27.75;;;;;;;11.72;64.02;100953.66;1755098;81;21164;-63
2021/03/29 10:34:11;;;;;;;31.37;23.27;;;;;;;11.68;63.87;100954.65;1755085;81;21341;-62
2021/03/29 10:36:45;;;;;;;39.48;27.25;;;;;;;11.64;63.90;100956.67;1724934;83;21176;-64
2021/03/29 10:39:25;;;;;;;37.63;27.05;;;;;;;11.58;64.10;100959.75;1724863;83;21057;-64
2021/03/29 10:41:53;;;;;;;35.38;25.70;;;;;;;11.56;64.15;100951.60;1724924;83;21168;-61
2021/03/29 10:44:21;;;;;;;31.95;25.35;;;;;;;11.55;64.34;100949.95;1724966;83;21137;-59
2021/03/29 10:46:49;;;;;;;37.35;27.55;;;;;;;11.56;64.21;100945.66;1724943;83;21138;-60
2021/03/29 10:49:17;;;;;;;31.70;22.20;;;;;;;11.58;64.28;100942.75;1724842;83;21231;-59
2021/03/29 10:51:51;;;;;;;41.45;27.17;;;;;;;11.64;63.88;100948.59;1751005;81;20983;-63
2021/03/29 10:54:19;;;;;;;35.43;24.57;;;;;;;11.64;64.06;100944.55;1755008;81;21133;-62
2021/03/29 10:56:46;;;;;;;33.45;26.20;;;;;;;11.72;63.96;100953.17;1754989;81;21132;-61
2021/03/29 10:59:15;;;;;;;37.30;27.10;;;;;;;11.79;63.56;100950.41;1755030;81;21384;-62
2021/03/29 11:01:43;;;;;;;36.23;25.55;;;;;;;11.89;63.49;100949.88;1754960;81;21070;-62
2021/03/29 11:04:11;;;;;;;38.92;27.15;;;;;;;12.05;62.51;100950.56;1754912;81;21161;-63
2021/03/29 11:06:40;;;;;;;38.80;27.42;;;;;;;12.15;62.45;100948.14;1754599;81;46896;-61
2021/03/29 11:09:08;;;;;;;35.75;27.25;;;;;;;12.27;62.14;100950.89;1754967;81;21173;-61
2021/03/29 11:11:38;;;;;;;34.60;25.45;;;;;;;12.41;61.87;100956.39;1754556;81;21054;-61
2021/03/29 11:14:06;;;;;;;32.15;24.90;;;;;;;12.46;61.28;100956.52;1754452;81;21169;-63
2021/03/29 11:16:36;;;;;;;30.68;24.35;;;;;;;12.43;61.15;100954.27;1754412;81;21062;-63
2021/03/29 11:19:05;;;;;;;35.25;23.62;;;;;;;12.38;61.16;100959.00;1754312;81;22312;-59
2021/03/29 11:21:33;;;;;;;33.05;23.50;;;;;;;12.37;61.08;100966.00;1754512;81;21173;-64
2021/03/29 11:24:02;;;;;;;29.87;22.60;;;;;;;12.24;61.04;100956.20;1754285;81;21207;-66
2021/03/29 11:26:30;;;;;;;31.15;23.65;;;;;;;12.14;61.28;100962.16;1754303;81;21192;-65
2021/03/29 11:28:58;;;;;;;30.40;21.33;;;;;;;12.06;61.57;100960.30;1754219;81;21547;-65
2021/03/29 11:31:27;;;;;;;32.20;22.67;;;;;;;12.07;61.72;100970.88;1754339;81;21160;-65
2021/03/29 11:33:56;;;;;;;35.48;26.15;;;;;;;12.09;61.76;100963.36;1754291;81;21227;-61
2021/03/29 11:36:23;;;;;;;37.88;25.70;;;;;;;12.12;61.54;100969.67;1754435;81;21224;-59
2021/03/29 11:38:51;;;;;;;27.13;20.32;;;;;;;12.22;61.27;100963.72;1754210;81;21230;-62
2021/03/29 11:41:20;;;;;;;36.33;23.42;;;;;;;12.32;61.01;100964.52;1754322;81;21137;-62